Pagrindinis puslapis
METAR-TAF:

METAR-TAF

Oro uostai :

Rozo, Dominika

platuma: 15-32N, ilguma: 061-24W, Aukštis: 5 m

Dabartinis oras

Ataskaita buvo paskelbta 1 valandą ir 21 minutes, ne 13:00 UTC
Vėjas 3 kt iš Šiaurės
Temperatūra 26°C
Drėgmė 89%
Slėgis 1011 hPa
Matomumas 10 km arba daugiau
Su prošvaistėmis ne aukštis 1500 ft
Su prošvaistėmis ne aukštis 3600 ft
lietus

METAR: TDCF 291300Z 35003KT 9999 -RA BKN015 BKN036 26/24 Q1011

Laikas: 10:21 (14:21 UTC)


TAF: trūkstamas

Orai ataskaitas ir orų prognozės (METAR, TAF).

turimą stotys yra geltonos ir raudonos taškus žemėlapyje.

Perkelti pele per norėdami pamatyti stoties vardą.

Tada spustelėkite, norėdami matyti oro stebėjimo ir prognozės.

Norėdami pakeisti žemėlapį: spustelėkite ant žalios mygtukų su juodo kryžiaus žemyn,; žalią mygtuką su brūkšneliu, jei norite nutolinti; arba žalių rodyklių gretimoms žemėlapius.


METAR-TAF: